Time;durP1;ratioP1;P1;durP2;ratioP2;P2;SDS_P1;SDS_P2;PMS_P1;PMS_P2;Temp;Humidity;BMP_temperature;BMP_pressure;BME280_temperature;BME280_humidity;BME280_pressure;Samples;Min_cycle;Max_cycle;Signal;HPM_P1;HPM_P2
2020/12/13 00:01:44;;;;;;;10.90;9.80;;;7.20;99.90;;;;;;5026576;28;20476;-70
2020/12/13 00:04:11;;;;;;;13.77;10.70;;;7.20;99.90;;;;;;5027531;28;20480;-70
2020/12/13 00:06:38;;;;;;;14.20;10.47;;;7.10;99.90;;;;;;5027123;28;20451;-71
2020/12/13 00:09:05;;;;;;;15.03;10.10;;;7.20;99.90;;;;;;5027478;28;21176;-71
2020/12/13 00:11:35;;;;;;;11.77;9.73;;;7.20;99.90;;;;;;5026231;28;20924;-71
2020/12/13 00:14:01;;;;;;;13.70;11.00;;;7.20;99.90;;;;;;5027366;28;20472;-71
2020/12/13 00:16:27;;;;;;;12.83;11.10;;;7.10;99.90;;;;;;5027730;28;20539;-71
2020/12/13 00:18:54;;;;;;;13.23;11.73;;;7.20;99.90;;;;;;5027145;28;20441;-71
2020/12/13 00:21:26;;;;;;;12.60;10.70;;;7.20;99.90;;;;;;5025939;28;20455;-71
2020/12/13 00:23:52;;;;;;;12.57;11.30;;;7.10;99.90;;;;;;5026378;28;20587;-71
2020/12/13 00:26:19;;;;;;;13.97;11.77;;;7.20;99.90;;;;;;5026966;28;20491;-71
2020/12/13 00:28:45;;;;;;;13.93;11.03;;;7.20;99.90;;;;;;5027164;28;20852;-71
2020/12/13 00:31:13;;;;;;;15.67;11.83;;;7.20;99.90;;;;;;5026227;28;20524;-71
2020/12/13 00:33:40;;;;;;;12.40;10.60;;;7.20;99.90;;;;;;5026808;28;20471;-71
2020/12/13 00:36:06;;;;;;;12.53;11.13;;;7.20;99.90;;;;;;5027217;28;20449;-71
2020/12/13 00:38:33;;;;;;;12.03;10.70;;;7.20;99.90;;;;;;5027047;28;20465;-71
2020/12/13 00:41:00;;;;;;;14.20;11.43;;;7.30;99.90;;;;;;5026039;28;20480;-71
2020/12/13 00:43:26;;;;;;;11.80;10.60;;;7.20;99.90;;;;;;5027065;28;20548;-71
2020/12/13 00:45:53;;;;;;;12.10;10.70;;;7.20;99.90;;;;;;5026768;28;20476;-71
2020/12/13 00:48:19;;;;;;;11.67;10.40;;;7.20;99.90;;;;;;5027011;28;20534;-72
2020/12/13 00:50:45;;;;;;;11.73;10.33;;;7.20;99.90;;;;;;5025818;28;20445;-72
2020/12/13 00:53:12;;;;;;;13.50;10.97;;;7.10;99.90;;;;;;5027348;28;20463;-71
2020/12/13 00:55:39;;;;;;;13.80;11.40;;;7.10;99.90;;;;;;5026526;28;20541;-71
2020/12/13 00:58:05;;;;;;;12.83;11.33;;;7.20;99.90;;;;;;5027356;28;20482;-71
2020/12/13 01:00:32;;;;;;;12.47;10.80;;;7.20;99.90;;;;;;5026031;28;20532;-71
2020/12/13 01:03:00;;;;;;;11.83;10.57;;;7.20;99.90;;;;;;5026787;28;21020;-71
2020/12/13 01:05:27;;;;;;;13.33;11.93;;;7.20;99.90;;;;;;5027267;28;20493;-70
2020/12/13 01:07:53;;;;;;;11.60;9.80;;;7.20;99.90;;;;;;5026660;28;20451;-71
2020/12/13 01:10:20;;;;;;;13.43;10.37;;;7.20;99.90;;;;;;5025823;28;20451;-71
2020/12/13 01:12:47;;;;;;;15.47;10.57;;;7.10;99.90;;;;;;5026357;28;20496;-71
2020/12/13 01:15:14;;;;;;;12.57;11.27;;;7.10;99.90;;;;;;5026780;28;20536;-71
2020/12/13 01:17:44;;;;;;;11.67;10.33;;;7.10;99.90;;;;;;5026293;28;20543;-71
2020/12/13 01:20:11;;;;;;;12.23;10.93;;;7.10;99.90;;;;;;5025812;28;21006;-71
2020/12/13 01:22:38;;;;;;;13.50;11.50;;;7.10;99.90;;;;;;5026580;28;20467;-70
2020/12/13 01:25:06;;;;;;;12.07;10.80;;;7.00;99.90;;;;;;5010807;28;20585;-72
2020/12/13 01:27:32;;;;;;;11.63;10.43;;;7.00;99.90;;;;;;5006807;28;20532;-71
2020/12/13 01:30:00;;;;;;;12.93;11.57;;;7.00;99.90;;;;;;5006379;28;20455;-72
2020/12/13 01:32:26;;;;;;;13.53;11.73;;;7.00;99.90;;;;;;5007095;28;20553;-71
2020/12/13 01:34:52;;;;;;;13.57;11.40;;;7.00;99.90;;;;;;5006706;28;20442;-71
2020/12/13 01:37:19;;;;;;;13.47;11.07;;;7.00;99.90;;;;;;5006909;28;20456;-71
2020/12/13 01:39:45;;;;;;;11.63;10.43;;;6.90;99.90;;;;;;5017447;28;20503;-71
2020/12/13 01:42:12;;;;;;;13.83;12.33;;;6.90;99.90;;;;;;5029320;28;20473;-71
2020/12/13 01:44:38;;;;;;;15.40;12.23;;;6.90;99.90;;;;;;5029634;28;20482;-71
2020/12/13 01:47:07;;;;;;;13.87;12.27;;;7.00;99.90;;;;;;5030471;28;20441;-71
2020/12/13 01:49:36;;;;;;;12.90;11.17;;;6.90;99.90;;;;;;5029514;28;20532;-71
2020/12/13 01:55:02;;;;;;;13.43;11.13;;;6.90;99.90;;;;;;4993549;28;20429;-71
2020/12/13 01:57:33;;;;;;;12.77;11.40;;;6.80;99.90;;;;;;5030389;28;20437;-71
2020/12/13 02:00:03;;;;;;;13.47;12.07;;;6.80;99.90;;;;;;5029458;28;20443;-71
2020/12/13 02:02:34;;;;;;;15.20;12.77;;;6.90;99.90;;;;;;5029832;28;20563;-71
2020/12/13 02:05:03;;;;;;;16.57;13.27;;;6.80;99.90;;;;;;5029767;28;20482;-75
2020/12/13 02:07:30;;;;;;;15.60;12.03;;;6.90;99.90;;;;;;5029690;28;20461;-72
2020/12/13 02:09:56;;;;;;;11.47;10.27;;;6.90;99.90;;;;;;5029003;28;20477;-71
2020/12/13 02:12:23;;;;;;;11.17;9.37;;;7.00;99.90;;;;;;5030353;28;20552;-71
2020/12/13 02:14:49;;;;;;;12.03;10.63;;;6.90;99.90;;;;;;5030816;28;20959;-72
2020/12/13 02:17:16;;;;;;;12.60;11.20;;;6.90;99.90;;;;;;5030755;28;20978;-72
2020/12/13 02:19:43;;;;;;;13.00;11.60;;;7.00;99.90;;;;;;5030736;28;20441;-71
2020/12/13 02:22:12;;;;;;;12.83;11.20;;;7.00;99.90;;;;;;5029711;28;20449;-71
2020/12/13 02:24:39;;;;;;;13.23;11.80;;;7.00;99.90;;;;;;5030359;28;21198;-71
2020/12/13 02:27:07;;;;;;;13.13;11.57;;;7.00;99.90;;;;;;5030698;28;20468;-71
2020/12/13 02:29:34;;;;;;;14.10;11.83;;;7.10;99.90;;;;;;5031015;28;20449;-71
2020/12/13 02:32:01;;;;;;;11.60;10.40;;;7.10;99.90;;;;;;5030546;28;20540;-72
2020/12/13 02:34:27;;;;;;;14.43;11.73;;;7.10;99.90;;;;;;5031904;28;20638;-72
2020/12/13 02:36:54;;;;;;;12.23;10.90;;;7.20;99.90;;;;;;5030974;28;20536;-72
2020/12/13 02:39:21;;;;;;;15.13;11.80;;;7.10;99.90;;;;;;5030261;28;20833;-72
2020/12/13 02:42:01;;;;;;;13.00;11.37;;;7.20;99.90;;;;;;5029401;28;20950;-72
2020/12/13 02:44:28;;;;;;;11.73;10.53;;;7.10;99.90;;;;;;5030142;28;20480;-72
2020/12/13 02:46:55;;;;;;;13.87;10.77;;;7.10;99.90;;;;;;5030112;28;20445;-71
2020/12/13 02:49:21;;;;;;;12.20;11.00;;;7.10;99.90;;;;;;5030246;28;20448;-72
2020/12/13 02:51:47;;;;;;;17.20;11.60;;;7.10;99.90;;;;;;5030100;28;20524;-72
2020/12/13 02:54:14;;;;;;;12.17;10.00;;;7.10;99.90;;;;;;5030976;28;20457;-72
2020/12/13 02:56:42;;;;;;;14.60;10.30;;;7.10;99.90;;;;;;5030190;28;20449;-71
2020/12/13 02:59:09;;;;;;;15.60;11.60;;;7.10;99.90;;;;;;5030008;28;20448;-71
2020/12/13 03:01:37;;;;;;;13.40;10.70;;;7.00;99.90;;;;;;5029045;28;20448;-71
2020/12/13 03:04:03;;;;;;;13.20;11.53;;;7.10;99.90;;;;;;5029848;28;20847;-71
2020/12/13 03:06:29;;;;;;;13.30;11.03;;;7.00;99.90;;;;;;5029989;28;20448;-71
2020/12/13 03:08:56;;;;;;;13.37;11.47;;;7.00;99.90;;;;;;5029555;28;20445;-71
2020/12/13 03:11:22;;;;;;;12.20;11.00;;;7.00;99.90;;;;;;5028976;28;20813;-71
2020/12/13 03:13:51;;;;;;;13.27;11.17;;;7.00;99.90;;;;;;5029721;28;20477;-71
2020/12/13 03:16:18;;;;;;;14.03;10.93;;;7.10;99.90;;;;;;5029520;28;20948;-72
2020/12/13 03:18:44;;;;;;;13.53;10.27;;;7.00;99.90;;;;;;5029738;28;20455;-71
2020/12/13 03:21:11;;;;;;;13.43;10.93;;;7.00;99.90;;;;;;5028946;28;20449;-71
2020/12/13 03:23:37;;;;;;;11.80;10.60;;;7.00;99.90;;;;;;5029420;28;20460;-71
2020/12/13 03:26:03;;;;;;;11.03;9.80;;;7.00;99.90;;;;;;5029175;28;20484;-71
2020/12/13 03:28:30;;;;;;;11.50;9.50;;;7.10;99.90;;;;;;5029310;28;20445;-71
2020/12/13 03:30:57;;;;;;;12.50;9.50;;;7.10;99.90;;;;;;5028652;28;21288;-71
2020/12/13 03:33:23;;;;;;;10.67;9.60;;;7.00;99.90;;;;;;5029489;28;20543;-71
2020/12/13 03:35:50;;;;;;;12.97;10.60;;;7.00;99.90;;;;;;5029336;28;20532;-72
2020/12/13 03:38:16;;;;;;;11.77;10.57;;;7.00;99.90;;;;;;5029241;28;20448;-72
2020/12/13 03:40:43;;;;;;;12.50;10.30;;;7.00;99.90;;;;;;5028039;28;21094;-72
2020/12/13 03:43:10;;;;;;;11.90;10.70;;;7.00;99.90;;;;;;5029036;28;20464;-71
2020/12/13 03:45:36;;;;;;;13.13;11.73;;;7.00;99.90;;;;;;5028973;28;20571;-71
2020/12/13 03:48:04;;;;;;;13.93;9.17;;;7.00;99.90;;;;;;5028944;28;21086;-72
2020/12/13 03:50:38;;;;;;;13.00;10.23;;;7.00;99.90;;;;;;5028366;28;20814;-71
2020/12/13 03:53:06;;;;;;;10.17;8.37;;;7.00;99.90;;;;;;5027933;28;20547;-71
2020/12/13 03:55:32;;;;;;;10.60;9.10;;;6.90;99.90;;;;;;5027975;28;20812;-71
2020/12/13 03:57:59;;;;;;;11.17;9.47;;;7.00;99.90;;;;;;5028729;28;20527;-72
2020/12/13 04:00:27;;;;;;;11.00;9.03;;;6.90;99.90;;;;;;5027790;28;20482;-71
2020/12/13 04:02:54;;;;;;;12.23;9.23;;;6.90;99.90;;;;;;5028752;28;20496;-71
2020/12/13 04:05:22;;;;;;;11.37;9.30;;;6.90;99.90;;;;;;5028431;28;20483;-71
2020/12/13 04:07:48;;;;;;;10.77;8.40;;;7.00;99.90;;;;;;5028714;28;20449;-71
2020/12/13 04:10:15;;;;;;;13.90;9.50;;;7.00;99.90;;;;;;5027832;28;20539;-71
2020/12/13 04:12:41;;;;;;;10.20;9.03;;;7.00;99.90;;;;;;5028243;28;20461;-71
2020/12/13 04:15:07;;;;;;;10.07;7.83;;;7.00;99.90;;;;;;5028728;28;20437;-71
2020/12/13 04:17:34;;;;;;;9.53;8.57;;;7.10;99.90;;;;;;5028395;28;20457;-72
2020/12/13 04:20:00;;;;;;;11.07;9.87;;;7.10;99.90;;;;;;5027954;28;20445;-72
2020/12/13 04:22:27;;;;;;;10.10;9.00;;;7.10;99.90;;;;;;5028433;28;20464;-71
2020/12/13 04:24:54;;;;;;;11.20;9.00;;;7.10;99.90;;;;;;5028367;28;20485;-71
2020/12/13 04:27:20;;;;;;;8.90;8.00;;;7.10;99.90;;;;;;5028453;28;20438;-71
2020/12/13 04:29:46;;;;;;;9.83;8.00;;;7.10;99.90;;;;;;5028434;28;20824;-71
2020/12/13 04:32:13;;;;;;;13.00;8.63;;;7.10;99.90;;;;;;5027769;28;20887;-71
2020/12/13 04:34:39;;;;;;;9.60;8.53;;;7.10;99.90;;;;;;5028185;28;21019;-71
2020/12/13 04:37:06;;;;;;;8.77;7.87;;;7.10;99.90;;;;;;5028340;28;20440;-71
2020/12/13 04:39:34;;;;;;;13.43;8.93;;;7.10;99.90;;;;;;5028147;28;20859;-71
2020/12/13 04:42:01;;;;;;;11.50;7.70;;;7.10;99.90;;;;;;5027326;28;20449;-71
2020/12/13 04:44:28;;;;;;;9.30;8.40;;;7.10;99.90;;;;;;5028158;28;20480;-71
2020/12/13 04:46:55;;;;;;;10.93;8.03;;;7.10;99.90;;;;;;5028334;28;20480;-71
2020/12/13 04:49:23;;;;;;;8.17;7.37;;;7.10;99.90;;;;;;5028340;28;20860;-71
2020/12/13 04:51:51;;;;;;;9.03;7.57;;;7.10;99.90;;;;;;5027508;28;20456;-71
2020/12/13 04:54:21;;;;;;;7.50;6.80;;;7.10;99.90;;;;;;5028123;28;20975;-71
2020/12/13 04:56:51;;;;;;;10.27;7.13;;;7.10;99.90;;;;;;5028050;28;20441;-72
2020/12/13 04:59:18;;;;;;;8.20;7.20;;;7.10;99.90;;;;;;5028729;28;20471;-72
2020/12/13 05:01:45;;;;;;;9.60;7.67;;;7.20;99.90;;;;;;5027840;28;20539;-72
2020/12/13 05:04:11;;;;;;;7.83;6.77;;;7.20;99.90;;;;;;5028772;28;20468;-72
2020/12/13 05:06:40;;;;;;;8.87;7.97;;;7.20;99.90;;;;;;5028477;28;20520;-72
2020/12/13 05:09:06;;;;;;;9.83;7.47;;;7.20;99.90;;;;;;5028362;28;20455;-72
2020/12/13 05:11:32;;;;;;;7.70;6.90;;;7.20;99.90;;;;;;5027779;28;20447;-72
2020/12/13 05:14:00;;;;;;;12.97;7.40;;;7.10;99.90;;;;;;5031327;28;20504;-70
2020/12/13 05:16:26;;;;;;;8.17;6.90;;;7.20;99.90;;;;;;5031794;28;20457;-71
2020/12/13 05:18:53;;;;;;;7.70;6.90;;;7.20;99.90;;;;;;5031745;28;21050;-72
2020/12/13 05:21:21;;;;;;;8.20;7.40;;;7.20;99.90;;;;;;5030853;28;20455;-71
2020/12/13 05:23:48;;;;;;;7.40;6.50;;;7.20;99.90;;;;;;5031572;28;20468;-72
2020/12/13 05:26:15;;;;;;;7.23;6.30;;;7.20;99.90;;;;;;5031534;28;20488;-71
2020/12/13 05:28:47;;;;;;;9.17;6.67;;;7.30;99.90;;;;;;5031956;28;20445;-71
2020/12/13 05:31:16;;;;;;;7.40;6.20;;;7.30;99.90;;;;;;5031024;28;20453;-72
2020/12/13 05:33:46;;;;;;;7.53;6.63;;;7.20;99.90;;;;;;5031580;28;20476;-71
2020/12/13 05:36:14;;;;;;;8.23;6.73;;;7.20;99.90;;;;;;5031993;28;20449;-71
2020/12/13 05:38:41;;;;;;;7.93;6.73;;;7.20;99.90;;;;;;5031448;28;20456;-71
2020/12/13 05:41:09;;;;;;;7.00;5.97;;;7.20;99.90;;;;;;5030667;28;20448;-72
2020/12/13 05:43:39;;;;;;;8.07;7.07;;;7.20;99.90;;;;;;5031342;28;20464;-71
2020/12/13 05:46:22;;;;;;;7.30;6.60;;;7.20;99.90;;;;;;5031266;28;20491;-72
2020/12/13 05:49:04;;;;;;;6.87;5.77;;;7.30;99.90;;;;;;5031562;28;20440;-71
2020/12/13 05:51:39;;;;;;;8.30;5.93;;;7.30;99.90;;;;;;5030350;28;20970;-71
2020/12/13 05:54:11;;;;;;;6.30;5.70;;;7.30;99.90;;;;;;5031132;28;20927;-72
2020/12/13 05:56:38;;;;;;;6.30;5.60;;;7.30;99.90;;;;;;5030904;28;20454;-71
2020/12/13 05:59:05;;;;;;;8.00;5.70;;;7.30;99.90;;;;;;5031294;28;20455;-72
2020/12/13 06:01:32;;;;;;;7.00;5.87;;;7.20;99.90;;;;;;5030106;28;20444;-71
2020/12/13 06:04:02;;;;;;;6.93;5.50;;;7.20;99.90;;;;;;5030874;28;20465;-72
2020/12/13 06:06:28;;;;;;;6.20;5.57;;;7.30;99.90;;;;;;5030964;28;20500;-71
2020/12/13 06:09:06;;;;;;;6.90;5.70;;;7.30;99.90;;;;;;5030707;28;20535;-71
2020/12/13 06:11:41;;;;;;;6.10;5.50;;;7.30;99.90;;;;;;5030138;28;20452;-71
2020/12/13 06:14:10;;;;;;;6.50;5.80;;;7.30;99.90;;;;;;5030686;28;20456;-71
2020/12/13 06:16:36;;;;;;;6.67;5.80;;;7.30;99.90;;;;;;5030754;28;20471;-72
2020/12/13 06:19:04;;;;;;;5.70;5.20;;;7.30;99.90;;;;;;5030636;28;20818;-72
2020/12/13 06:21:31;;;;;;;5.30;4.60;;;7.30;99.90;;;;;;5029970;28;20445;-72
2020/12/13 06:23:58;;;;;;;5.20;4.50;;;7.30;99.90;;;;;;5030132;28;20460;-71
2020/12/13 06:26:25;;;;;;;4.73;4.17;;;7.30;99.90;;;;;;5030345;28;20531;-71
2020/12/13 06:28:52;;;;;;;6.30;5.33;;;7.40;99.90;;;;;;5030599;28;20444;-71
2020/12/13 06:31:18;;;;;;;4.87;4.40;;;7.40;99.90;;;;;;5029789;28;20441;-71
2020/12/13 06:33:45;;;;;;;4.97;3.93;;;7.40;99.90;;;;;;5030304;28;20809;-71
2020/12/13 06:36:13;;;;;;;4.07;3.47;;;7.40;99.90;;;;;;5030348;28;20447;-71
2020/12/13 06:38:41;;;;;;;5.63;3.77;;;7.40;99.90;;;;;;5030250;28;20455;-72
2020/12/13 06:41:08;;;;;;;4.80;4.00;;;7.40;99.90;;;;;;5029563;28;20449;-71
2020/12/13 06:43:50;;;;;;;6.70;4.90;;;7.40;99.90;;;;;;5029835;28;20468;-71
2020/12/13 06:46:18;;;;;;;4.77;4.37;;;7.40;99.90;;;;;;5030161;28;20487;-71
2020/12/13 06:48:45;;;;;;;10.17;4.30;;;7.40;99.90;;;;;;5030056;28;20507;-71
2020/12/13 06:51:17;;;;;;;4.70;4.23;;;7.40;99.90;;;;;;5029676;28;20463;-71
2020/12/13 06:53:44;;;;;;;5.00;4.13;;;7.40;99.90;;;;;;5030813;28;20579;-72
2020/12/13 06:56:12;;;;;;;4.67;3.67;;;7.40;99.90;;;;;;5029887;28;20440;-71
2020/12/13 06:58:45;;;;;;;5.40;3.93;;;7.40;99.90;;;;;;5030168;28;20455;-71
2020/12/13 07:01:17;;;;;;;4.63;4.07;;;7.40;99.90;;;;;;5029086;28;20512;-71
2020/12/13 07:03:43;;;;;;;6.97;4.70;;;7.40;99.90;;;;;;5029744;28;21051;-71
2020/12/13 07:06:16;;;;;;;5.03;4.53;;;7.40;99.90;;;;;;5029722;28;20485;-71
2020/12/13 07:08:48;;;;;;;4.50;3.33;;;7.40;99.90;;;;;;5029851;28;20449;-71
2020/12/13 07:11:14;;;;;;;4.87;4.20;;;7.40;99.90;;;;;;5029231;28;20445;-71
2020/12/13 07:13:44;;;;;;;4.90;3.80;;;7.40;99.90;;;;;;5029657;28;20469;-71
2020/12/13 07:16:15;;;;;;;3.90;3.57;;;7.40;99.90;;;;;;5029745;28;20511;-72
2020/12/13 07:18:46;;;;;;;5.20;3.37;;;7.40;99.90;;;;;;5030246;28;20449;-71
2020/12/13 07:21:15;;;;;;;5.40;3.83;;;7.50;99.90;;;;;;5029737;28;20449;-72
2020/12/13 07:23:43;;;;;;;4.60;3.80;;;7.50;99.90;;;;;;5029437;28;20469;-71
2020/12/13 07:26:10;;;;;;;4.17;3.10;;;7.50;99.90;;;;;;5029381;28;20481;-71
2020/12/13 07:28:38;;;;;;;4.80;3.77;;;7.50;99.90;;;;;;5029334;28;20441;-71
2020/12/13 07:31:04;;;;;;;3.70;3.20;;;7.50;99.90;;;;;;5028905;28;20565;-71
2020/12/13 07:33:31;;;;;;;3.80;3.30;;;7.50;99.90;;;;;;5029312;28;21045;-71
2020/12/13 07:35:58;;;;;;;4.20;3.50;;;7.50;99.90;;;;;;5028475;28;20437;-71
2020/12/13 07:38:24;;;;;;;4.20;3.30;;;7.60;99.90;;;;;;5029248;28;20464;-71
2020/12/13 07:40:51;;;;;;;4.90;4.50;;;7.60;99.90;;;;;;5028222;28;20536;-71
2020/12/13 07:43:18;;;;;;;4.53;3.30;;;7.60;99.90;;;;;;5029414;28;20565;-71
2020/12/13 07:45:46;;;;;;;4.67;4.20;;;7.50;99.90;;;;;;5029280;28;20488;-71
2020/12/13 07:48:15;;;;;;;4.13;3.23;;;7.60;99.90;;;;;;5028974;28;20535;-71
2020/12/13 07:50:46;;;;;;;3.90;3.40;;;7.60;99.90;;;;;;5028568;28;20455;-72
2020/12/13 07:53:22;;;;;;;4.33;3.53;;;7.60;99.90;;;;;;5029159;28;20460;-71
2020/12/13 07:55:49;;;;;;;3.93;3.10;;;7.60;99.90;;;;;;5029219;28;20819;-71
2020/12/13 07:58:19;;;;;;;4.40;3.17;;;7.70;99.90;;;;;;5028984;28;21023;-71
2020/12/13 08:00:46;;;;;;;3.57;2.80;;;7.70;99.90;;;;;;5028392;28;20441;-70
2020/12/13 08:03:12;;;;;;;4.20;3.70;;;7.70;99.90;;;;;;5029652;28;20544;-71
2020/12/13 08:05:42;;;;;;;4.63;3.20;;;7.70;99.90;;;;;;5030412;28;21010;-71
2020/12/13 08:08:09;;;;;;;4.30;2.70;;;7.70;99.90;;;;;;5029586;28;20488;-72
2020/12/13 08:10:35;;;;;;;5.00;3.30;;;7.70;99.90;;;;;;5028431;28;20484;-72
2020/12/13 08:13:03;;;;;;;3.47;2.83;;;7.70;99.90;;;;;;5028820;28;20465;-71
2020/12/13 08:15:31;;;;;;;4.03;3.10;;;7.70;99.90;;;;;;5028889;28;20488;-72
2020/12/13 08:18:04;;;;;;;3.10;2.30;;;7.70;99.90;;;;;;5028445;28;20457;-71
2020/12/13 08:20:33;;;;;;;3.60;3.07;;;7.80;99.90;;;;;;5027819;28;20520;-72
2020/12/13 08:23:02;;;;;;;3.13;2.60;;;7.80;99.90;;;;;;5028810;28;20540;-71
2020/12/13 08:25:29;;;;;;;4.47;3.50;;;7.80;99.90;;;;;;5029188;28;20487;-72
2020/12/13 08:27:56;;;;;;;5.40;3.33;;;7.80;99.90;;;;;;5028590;28;20453;-72
2020/12/13 08:30:24;;;;;;;3.93;3.37;;;7.80;99.90;;;;;;5027799;28;20493;-72
2020/12/13 08:32:55;;;;;;;4.63;3.83;;;7.80;99.90;;;;;;5028847;28;20463;-72
2020/12/13 08:35:21;;;;;;;4.80;3.83;;;7.80;99.90;;;;;;5028265;28;20856;-72
2020/12/13 08:37:53;;;;;;;6.40;4.60;;;7.80;99.90;;;;;;5028309;28;20536;-72
2020/12/13 08:40:34;;;;;;;5.00;4.00;;;7.90;99.90;;;;;;5027759;28;20449;-72
2020/12/13 08:43:00;;;;;;;5.33;4.20;;;7.90;99.90;;;;;;5028332;28;20459;-72
2020/12/13 08:45:26;;;;;;;4.13;3.30;;;8.00;99.90;;;;;;5028067;28;20572;-72
2020/12/13 08:47:59;;;;;;;5.20;4.60;;;8.00;99.90;;;;;;5031178;28;20531;-72
2020/12/13 08:50:25;;;;;;;8.70;5.20;;;8.00;99.90;;;;;;5031801;28;20445;-71
2020/12/13 08:52:52;;;;;;;10.40;6.10;;;8.10;99.90;;;;;;5032277;28;20460;-72
2020/12/13 08:55:25;;;;;;;5.07;4.53;;;8.10;99.90;;;;;;5032359;28;20531;-73
2020/12/13 08:57:59;;;;;;;5.47;4.87;;;8.20;99.90;;;;;;5031998;28;20440;-73
2020/12/13 09:00:27;;;;;;;4.70;4.07;;;8.20;99.90;;;;;;5031670;28;20449;-72
2020/12/13 09:02:58;;;;;;;4.50;3.90;;;8.20;99.90;;;;;;5032162;28;20469;-72
2020/12/13 09:05:27;;;;;;;6.10;4.60;;;8.30;99.90;;;;;;5031916;28;21015;-70
2020/12/13 09:07:54;;;;;;;6.00;4.40;;;8.40;99.90;;;;;;5032351;28;20448;-71
2020/12/13 09:10:21;;;;;;;7.10;4.93;;;8.40;99.90;;;;;;5031233;28;20874;-71
2020/12/13 09:12:48;;;;;;;6.80;5.23;;;8.50;99.90;;;;;;5031641;28;20565;-70
2020/12/13 09:15:15;;;;;;;5.90;5.30;;;8.60;99.90;;;;;;5032012;28;20527;-72
2020/12/13 09:17:51;;;;;;;6.10;4.70;;;8.60;99.90;;;;;;5029441;28;20919;-71
2020/12/13 09:20:24;;;;;;;6.67;4.67;;;8.70;99.90;;;;;;5029898;28;20950;-71
2020/12/13 09:23:00;;;;;;;5.80;5.20;;;8.80;99.90;;;;;;5030649;28;20496;-72
2020/12/13 09:25:27;;;;;;;4.83;4.33;;;8.80;99.90;;;;;;5030856;28;20479;-71
2020/12/13 09:28:01;;;;;;;8.13;6.57;;;8.90;99.90;;;;;;5031114;28;20557;-72
2020/12/13 09:30:27;;;;;;;9.70;6.33;;;8.90;99.90;;;;;;5029756;28;20445;-71
2020/12/13 09:32:54;;;;;;;9.00;5.93;;;8.90;99.90;;;;;;5030768;28;20469;-72
2020/12/13 09:35:20;;;;;;;6.70;5.87;;;9.00;99.90;;;;;;5030264;28;20524;-73
2020/12/13 09:37:48;;;;;;;5.70;5.20;;;9.10;99.90;;;;;;5030642;28;20489;-73
2020/12/13 09:40:14;;;;;;;6.73;4.83;;;9.10;99.90;;;;;;5029869;28;21507;-71
2020/12/13 09:42:40;;;;;;;7.47;5.93;;;9.20;99.90;;;;;;5030418;28;20465;-72
2020/12/13 09:45:07;;;;;;;8.50;6.20;;;9.20;99.90;;;;;;5030458;28;20567;-72
2020/12/13 09:47:33;;;;;;;9.10;5.63;;;9.20;99.90;;;;;;5029814;28;21011;-71
2020/12/13 09:50:00;;;;;;;8.30;5.37;;;9.20;99.90;;;;;;5029651;28;20479;-73
2020/12/13 09:52:26;;;;;;;6.20;5.60;;;9.30;99.90;;;;;;5030285;28;20464;-72
2020/12/13 09:54:54;;;;;;;6.50;5.80;;;9.20;99.90;;;;;;5030516;28;20555;-72
2020/12/13 09:57:20;;;;;;;9.30;4.83;;;9.10;99.90;;;;;;5029826;28;20448;-73
2020/12/13 09:59:47;;;;;;;4.93;4.00;;;9.10;99.90;;;;;;5029267;28;20448;-72
2020/12/13 10:02:13;;;;;;;4.70;4.17;;;9.10;99.90;;;;;;5029557;28;20963;-72
2020/12/13 10:04:40;;;;;;;5.20;4.60;;;9.10;99.90;;;;;;5030071;28;20468;-72
2020/12/13 10:07:26;;;;;;;5.90;4.40;;;9.20;99.90;;;;;;5030405;28;20455;-73
2020/12/13 10:09:52;;;;;;;5.80;4.40;;;9.30;99.90;;;;;;5030026;28;20453;-73
2020/12/13 10:12:19;;;;;;;5.47;3.83;;;9.30;99.90;;;;;;5029658;28;20564;-73
2020/12/13 10:14:46;;;;;;;3.70;3.30;;;9.20;99.90;;;;;;5030174;28;20514;-71
2020/12/13 10:17:12;;;;;;;4.90;4.37;;;9.20;99.90;;;;;;5030173;28;20460;-71
2020/12/13 10:19:39;;;;;;;6.63;4.13;;;9.10;99.90;;;;;;5030311;28;21254;-71
2020/12/13 10:22:05;;;;;;;4.20;3.80;;;9.10;99.90;;;;;;5030070;28;20516;-73
2020/12/13 10:24:31;;;;;;;4.20;3.33;;;9.00;99.90;;;;;;5029724;28;20441;-70
2020/12/13 10:26:58;;;;;;;4.27;3.87;;;9.00;99.90;;;;;;5030051;28;20571;-72
2020/12/13 10:29:25;;;;;;;4.97;3.87;;;9.00;99.90;;;;;;5029745;28;20516;-71
2020/12/13 10:31:51;;;;;;;4.77;3.97;;;9.00;99.90;;;;;;5029279;28;20946;-71
2020/12/13 10:34:18;;;;;;;5.40;3.53;;;9.10;99.90;;;;;;5029656;28;20492;-70
2020/12/13 10:36:44;;;;;;;7.47;5.63;;;9.10;99.90;;;;;;5030244;28;20789;-71
2020/12/13 10:39:12;;;;;;;4.00;3.43;;;9.20;99.90;;;;;;5022706;28;20441;-71
2020/12/13 10:41:38;;;;;;;5.13;3.27;;;9.20;99.90;;;;;;5026592;28;20527;-71
2020/12/13 10:44:06;;;;;;;3.87;3.30;;;9.20;99.90;;;;;;5022931;28;20461;-71
2020/12/13 10:46:33;;;;;;;5.03;4.07;;;9.20;99.90;;;;;;5028723;28;20492;-71
2020/12/13 10:48:59;;;;;;;6.63;3.40;;;9.30;99.90;;;;;;5023985;28;20445;-71
2020/12/13 10:51:26;;;;;;;5.00;3.00;;;9.40;99.90;;;;;;5016745;28;20560;-72
2020/12/13 10:53:53;;;;;;;6.17;3.33;;;9.50;99.90;;;;;;5008035;28;20458;-70
2020/12/13 10:56:19;;;;;;;3.87;2.70;;;9.60;99.90;;;;;;5016493;28;21242;-71
2020/12/13 10:58:45;;;;;;;3.57;2.90;;;9.50;99.90;;;;;;5027959;28;20471;-72
2020/12/13 11:01:13;;;;;;;4.33;2.80;;;9.50;99.90;;;;;;5026924;28;20818;-72
2020/12/13 11:03:40;;;;;;;3.50;2.73;;;9.40;99.90;;;;;;5027573;28;20975;-71
2020/12/13 11:06:08;;;;;;;5.40;3.37;;;9.40;99.90;;;;;;5028004;28;21301;-70
2020/12/13 11:08:34;;;;;;;5.27;3.10;;;9.50;99.90;;;;;;5027903;28;20452;-71
2020/12/13 11:11:01;;;;;;;4.30;3.17;;;9.60;99.90;;;;;;5025368;28;20459;-75
2020/12/13 11:13:27;;;;;;;5.70;3.20;;;9.70;99.90;;;;;;5026901;28;20499;-72
2020/12/13 11:15:54;;;;;;;4.77;2.90;;;9.70;99.90;;;;;;5027255;28;20471;-71
2020/12/13 11:18:21;;;;;;;4.40;2.90;;;9.60;99.90;;;;;;5017167;28;20540;-69
2020/12/13 11:20:47;;;;;;;4.43;3.27;;;9.60;99.90;;;;;;5026448;28;20439;-71
2020/12/13 11:23:14;;;;;;;5.20;3.33;;;9.60;99.90;;;;;;5027083;28;21355;-70
2020/12/13 11:25:40;;;;;;;4.23;3.10;;;9.50;99.90;;;;;;5023682;28;20473;-71
2020/12/13 11:28:07;;;;;;;3.27;2.30;;;9.50;99.90;;;;;;5011984;28;20533;-72
2020/12/13 11:30:34;;;;;;;2.87;2.30;;;9.30;99.90;;;;;;5006137;28;20461;-71
2020/12/13 11:33:01;;;;;;;4.33;2.50;;;9.20;99.90;;;;;;5007025;28;20540;-70
2020/12/13 11:35:28;;;;;;;3.83;3.03;;;9.00;99.90;;;;;;5007460;28;20529;-71
2020/12/13 11:37:54;;;;;;;2.87;2.50;;;8.90;99.90;;;;;;5007256;28;20477;-71
2020/12/13 11:40:21;;;;;;;4.40;3.07;;;8.80;99.90;;;;;;5015922;28;20528;-72
2020/12/13 11:42:48;;;;;;;4.30;2.90;;;8.80;99.90;;;;;;5039636;28;20539;-71
2020/12/13 11:45:14;;;;;;;3.43;3.10;;;8.80;99.90;;;;;;5031677;28;20998;-72
2020/12/13 11:47:41;;;;;;;5.37;3.60;;;8.80;99.90;;;;;;5041414;28;20456;-70
2020/12/13 11:50:09;;;;;;;5.77;4.43;;;8.90;99.90;;;;;;5026428;28;20519;-70
2020/12/13 11:52:38;;;;;;;7.93;3.67;;;8.90;99.90;;;;;;5027190;28;20476;-70
2020/12/13 11:55:05;;;;;;;7.00;3.50;;;9.00;99.90;;;;;;5027956;28;20445;-72
2020/12/13 11:57:31;;;;;;;4.00;3.20;;;9.00;99.90;;;;;;5024422;28;20445;-73
2020/12/13 11:59:57;;;;;;;4.50;3.50;;;9.00;99.90;;;;;;5027110;28;20473;-73
2020/12/13 12:02:24;;;;;;;5.43;3.30;;;9.10;99.90;;;;;;5023812;28;20560;-73
2020/12/13 12:04:50;;;;;;;4.50;3.43;;;9.10;99.90;;;;;;5016561;28;20480;-74
2020/12/13 12:07:17;;;;;;;5.93;3.93;;;9.00;99.90;;;;;;5019328;28;20539;-73
2020/12/13 12:09:44;;;;;;;4.90;3.20;;;9.00;99.90;;;;;;5011870;28;20532;-73
2020/12/13 12:12:10;;;;;;;5.73;3.53;;;9.00;99.90;;;;;;5025247;28;20440;-72
2020/12/13 12:14:37;;;;;;;4.03;3.10;;;9.00;99.90;;;;;;5020770;28;20448;-72
2020/12/13 12:17:03;;;;;;;5.83;3.97;;;9.00;99.90;;;;;;5023214;28;20459;-71
2020/12/13 12:19:31;;;;;;;4.90;2.73;;;8.90;99.90;;;;;;5024814;28;20952;-71
2020/12/13 12:21:57;;;;;;;3.23;2.40;;;8.90;99.90;;;;;;5017717;28;20817;-71
2020/12/13 12:24:23;;;;;;;4.20;2.90;;;8.80;99.90;;;;;;5018894;28;20570;-71
2020/12/13 12:26:51;;;;;;;4.43;2.83;;;8.80;99.90;;;;;;5026362;28;20487;-71
2020/12/13 12:29:19;;;;;;;4.33;3.20;;;8.80;99.90;;;;;;5023455;28;21020;-72
2020/12/13 12:31:46;;;;;;;5.00;3.40;;;8.80;99.90;;;;;;5021476;28;20460;-71
2020/12/13 12:34:12;;;;;;;5.97;3.40;;;8.80;99.90;;;;;;5022688;28;20470;-71
2020/12/13 12:36:39;;;;;;;5.37;4.43;;;8.80;99.90;;;;;;5017910;28;20536;-71
2020/12/13 12:39:06;;;;;;;4.17;3.40;;;8.90;99.90;;;;;;5025962;28;20528;-71
2020/12/13 12:41:33;;;;;;;3.37;2.83;;;8.90;99.90;;;;;;5023402;28;20679;-71
2020/12/13 12:44:01;;;;;;;5.73;3.20;;;9.00;99.90;;;;;;5017394;28;20481;-71
2020/12/13 12:46:28;;;;;;;3.80;2.33;;;9.00;99.90;;;;;;5022271;28;20527;-71
2020/12/13 12:48:55;;;;;;;7.23;4.13;;;9.00;99.90;;;;;;5026100;28;20536;-72
2020/12/13 12:51:22;;;;;;;4.43;3.00;;;8.90;99.90;;;;;;5025170;28;20557;-72
2020/12/13 12:53:49;;;;;;;4.60;3.27;;;8.90;99.90;;;;;;5031975;28;20483;-72
2020/12/13 12:56:16;;;;;;;4.43;2.60;;;8.90;99.90;;;;;;5033209;28;20483;-71